sensor_id;sensor_type;location;lat;lon;timestamp;temperature;humidity
1996;DHT22;38556;47.068;15.408;2023-10-19T00:01:26;10.50;90.50
1996;DHT22;38556;47.068;15.408;2023-10-19T00:03:55;10.00;90.70
1996;DHT22;38556;47.068;15.408;2023-10-19T00:08:49;10.60;90.50
1996;DHT22;38556;47.068;15.408;2023-10-19T00:13:48;10.80;89.80
1996;DHT22;38556;47.068;15.408;2023-10-19T00:16:16;11.00;88.70
1996;DHT22;38556;47.068;15.408;2023-10-19T00:21:12;11.30;87.60
1996;DHT22;38556;47.068;15.408;2023-10-19T00:26:16;11.40;86.90
1996;DHT22;38556;47.068;15.408;2023-10-19T00:28:45;11.50;86.50
1996;DHT22;38556;47.068;15.408;2023-10-19T00:31:12;11.50;86.50
1996;DHT22;38556;47.068;15.408;2023-10-19T00:33:39;11.50;86.40
1996;DHT22;38556;47.068;15.408;2023-10-19T00:36:07;11.60;86.20
1996;DHT22;38556;47.068;15.408;2023-10-19T00:38:38;11.30;86.40
1996;DHT22;38556;47.068;15.408;2023-10-19T00:41:17;10.80;87.90
1996;DHT22;38556;47.068;15.408;2023-10-19T00:43:48;10.10;89.50
1996;DHT22;38556;47.068;15.408;2023-10-19T00:49:01;10.60;89.10
1996;DHT22;38556;47.068;15.408;2023-10-19T00:51:37;10.00;88.30
1996;DHT22;38556;47.068;15.408;2023-10-19T00:54:15;10.80;88.70
1996;DHT22;38556;47.068;15.408;2023-10-19T01:01:51;11.20;87.10
1996;DHT22;38556;47.068;15.408;2023-10-19T01:09:32;11.30;86.60
1996;DHT22;38556;47.068;15.408;2023-10-19T01:12:02;11.40;86.20
1996;DHT22;38556;47.068;15.408;2023-10-19T01:14:33;11.40;85.80
1996;DHT22;38556;47.068;15.408;2023-10-19T01:17:01;11.40;85.50
1996;DHT22;38556;47.068;15.408;2023-10-19T01:19:31;11.50;85.60
1996;DHT22;38556;47.068;15.408;2023-10-19T01:24:30;16.70;90.50
1996;DHT22;38556;47.068;15.408;2023-10-19T01:27:06;11.30;85.60
1996;DHT22;38556;47.068;15.408;2023-10-19T01:29:36;11.30;85.90
1996;DHT22;38556;47.068;15.408;2023-10-19T01:32:06;11.30;85.90
1996;DHT22;38556;47.068;15.408;2023-10-19T01:37:03;11.40;85.70
1996;DHT22;38556;47.068;15.408;2023-10-19T01:39:32;11.40;85.50
1996;DHT22;38556;47.068;15.408;2023-10-19T01:42:02;11.40;85.00
1996;DHT22;38556;47.068;15.408;2023-10-19T01:46:59;11.50;84.90
1996;DHT22;38556;47.068;15.408;2023-10-19T01:51:54;11.40;84.70
1996;DHT22;38556;47.068;15.408;2023-10-19T01:54:22;11.40;85.00
1996;DHT22;38556;47.068;15.408;2023-10-19T01:56:53;11.40;85.10
1996;DHT22;38556;47.068;15.408;2023-10-19T02:01:49;10.30;87.20
1996;DHT22;38556;47.068;15.408;2023-10-19T02:04:17;10.20;88.80
1996;DHT22;38556;47.068;15.408;2023-10-19T02:11:44;10.40;88.90
1996;DHT22;38556;47.068;15.408;2023-10-19T02:14:14;10.50;88.60
1996;DHT22;38556;47.068;15.408;2023-10-19T02:19:10;10.10;89.00
1996;DHT22;38556;47.068;15.408;2023-10-19T02:21:36;9.80;90.60
1996;DHT22;38556;47.068;15.408;2023-10-19T02:24:06;9.20;91.80
1996;DHT22;38556;47.068;15.408;2023-10-19T02:26:34;9.30;91.70
1996;DHT22;38556;47.068;15.408;2023-10-19T02:29:03;9.50;91.60
1996;DHT22;38556;47.068;15.408;2023-10-19T02:31:35;9.70;91.30
1996;DHT22;38556;47.068;15.408;2023-10-19T02:34:04;10.00;90.30
1996;DHT22;38556;47.068;15.408;2023-10-19T02:36:31;10.30;89.60
1996;DHT22;38556;47.068;15.408;2023-10-19T02:39:00;10.50;88.60
1996;DHT22;38556;47.068;15.408;2023-10-19T02:44:01;10.60;87.90
1996;DHT22;38556;47.068;15.408;2023-10-19T02:46:29;10.70;87.40
1996;DHT22;38556;47.068;15.408;2023-10-19T02:49:01;10.70;87.20
1996;DHT22;38556;47.068;15.408;2023-10-19T02:53:57;10.70;87.10
1996;DHT22;38556;47.068;15.408;2023-10-19T02:58:56;10.60;87.00
1996;DHT22;38556;47.068;15.408;2023-10-19T03:01:30;10.50;87.20
1996;DHT22;38556;47.068;15.408;2023-10-19T03:04:02;10.40;87.30
1996;DHT22;38556;47.068;15.408;2023-10-19T03:06:30;10.30;87.70
1996;DHT22;38556;47.068;15.408;2023-10-19T03:08:59;10.30;87.80
1996;DHT22;38556;47.068;15.408;2023-10-19T03:11:29;10.30;87.50
1996;DHT22;38556;47.068;15.408;2023-10-19T03:13:58;10.30;87.90
1996;DHT22;38556;47.068;15.408;2023-10-19T03:16:24;10.30;87.80
1996;DHT22;38556;47.068;15.408;2023-10-19T03:21:24;10.00;88.40
1996;DHT22;38556;47.068;15.408;2023-10-19T03:23:53;10.20;87.80
1996;DHT22;38556;47.068;15.408;2023-10-19T03:28:57;10.60;86.60
1996;DHT22;38556;47.068;15.408;2023-10-19T03:31:28;10.60;86.50
1996;DHT22;38556;47.068;15.408;2023-10-19T03:33:56;10.70;86.20
1996;DHT22;38556;47.068;15.408;2023-10-19T03:36:26;10.70;85.90
1996;DHT22;38556;47.068;15.408;2023-10-19T03:38:54;10.80;85.50
1996;DHT22;38556;47.068;15.408;2023-10-19T03:43:54;10.30;86.60
1996;DHT22;38556;47.068;15.408;2023-10-19T03:51:27;10.00;88.00
1996;DHT22;38556;47.068;15.408;2023-10-19T03:54:05;10.00;88.30
1996;DHT22;38556;47.068;15.408;2023-10-19T03:56:41;9.70;89.50
1996;DHT22;38556;47.068;15.408;2023-10-19T03:59:08;10.00;88.70
1996;DHT22;38556;47.068;15.408;2023-10-19T04:01:36;10.00;88.50
1996;DHT22;38556;47.068;15.408;2023-10-19T04:04:05;9.80;90.00
1996;DHT22;38556;47.068;15.408;2023-10-19T04:06:36;9.50;90.00
1996;DHT22;38556;47.068;15.408;2023-10-19T04:11:32;9.00;91.10
1996;DHT22;38556;47.068;15.408;2023-10-19T04:16:40;9.30;91.10
1996;DHT22;38556;47.068;15.408;2023-10-19T04:19:09;9.60;90.50
1996;DHT22;38556;47.068;15.408;2023-10-19T04:21:38;9.90;90.00
1996;DHT22;38556;47.068;15.408;2023-10-19T04:24:10;9.90;89.70
1996;DHT22;38556;47.068;15.408;2023-10-19T04:26:38;10.10;87.80
1996;DHT22;38556;47.068;15.408;2023-10-19T04:29:06;9.60;89.10
1996;DHT22;38556;47.068;15.408;2023-10-19T04:31:38;8.40;91.70
1996;DHT22;38556;47.068;15.408;2023-10-19T04:34:14;8.40;92.90
1996;DHT22;38556;47.068;15.408;2023-10-19T04:36:46;8.70;92.80
1996;DHT22;38556;47.068;15.408;2023-10-19T04:41:41;8.60;92.30
1996;DHT22;38556;47.068;15.408;2023-10-19T04:44:10;8.20;93.20
1996;DHT22;38556;47.068;15.408;2023-10-19T04:51:32;8.30;93.60
1996;DHT22;38556;47.068;15.408;2023-10-19T04:54:04;8.60;93.30
1996;DHT22;38556;47.068;15.408;2023-10-19T04:58:58;9.20;91.80
1996;DHT22;38556;47.068;15.408;2023-10-19T05:01:26;8.80;91.70
1996;DHT22;38556;47.068;15.408;2023-10-19T05:03:54;8.80;92.40
1996;DHT22;38556;47.068;15.408;2023-10-19T05:11:19;8.20;93.70
1996;DHT22;38556;47.068;15.408;2023-10-19T05:13:46;8.20;93.20
1996;DHT22;38556;47.068;15.408;2023-10-19T05:21:09;8.60;92.90
1996;DHT22;38556;47.068;15.408;2023-10-19T05:23:52;8.80;93.10
1996;DHT22;38556;47.068;15.408;2023-10-19T05:26:20;8.70;92.90
1996;DHT22;38556;47.068;15.408;2023-10-19T05:28:48;8.70;93.30
1996;DHT22;38556;47.068;15.408;2023-10-19T05:33:43;8.90;92.60
1996;DHT22;38556;47.068;15.408;2023-10-19T05:36:10;9.00;92.50
1996;DHT22;38556;47.068;15.408;2023-10-19T05:41:08;9.50;91.70
1996;DHT22;38556;47.068;15.408;2023-10-19T05:43:38;9.80;91.20
1996;DHT22;38556;47.068;15.408;2023-10-19T05:48:32;9.80;91.90
1996;DHT22;38556;47.068;15.408;2023-10-19T06:00:52;9.80;91.40
1996;DHT22;38556;47.068;15.408;2023-10-19T06:08:15;9.90;91.30
1996;DHT22;38556;47.068;15.408;2023-10-19T06:10:43;10.20;90.40
1996;DHT22;38556;47.068;15.408;2023-10-19T06:13:18;10.40;90.00
1996;DHT22;38556;47.068;15.408;2023-10-19T06:15:45;10.30;90.00
1996;DHT22;38556;47.068;15.408;2023-10-19T06:18:14;10.40;89.80
1996;DHT22;38556;47.068;15.408;2023-10-19T06:20:43;10.50;89.80
1996;DHT22;38556;47.068;15.408;2023-10-19T06:23:11;10.60;89.60
1996;DHT22;38556;47.068;15.408;2023-10-19T06:28:09;10.80;88.70
1996;DHT22;38556;47.068;15.408;2023-10-19T06:35:35;11.10;87.70
1996;DHT22;38556;47.068;15.408;2023-10-19T06:38:04;11.00;87.70
1996;DHT22;38556;47.068;15.408;2023-10-19T06:40:33;10.60;88.70
1996;DHT22;38556;47.068;15.408;2023-10-19T06:43:01;10.50;89.20
1996;DHT22;38556;47.068;15.408;2023-10-19T06:45:32;10.40;89.80
1996;DHT22;38556;47.068;15.408;2023-10-19T06:47:59;10.60;90.00
1996;DHT22;38556;47.068;15.408;2023-10-19T06:50:27;10.90;89.80
1996;DHT22;38556;47.068;15.408;2023-10-19T06:52:56;11.20;88.90
1996;DHT22;38556;47.068;15.408;2023-10-19T06:55:24;11.30;88.50
1996;DHT22;38556;47.068;15.408;2023-10-19T07:00:21;11.40;89.90
1996;DHT22;38556;47.068;15.408;2023-10-19T07:02:49;11.60;88.80
1996;DHT22;38556;47.068;15.408;2023-10-19T07:05:18;11.80;88.10
1996;DHT22;38556;47.068;15.408;2023-10-19T07:10:19;12.10;87.50
1996;DHT22;38556;47.068;15.408;2023-10-19T07:12:48;12.20;87.50
1996;DHT22;38556;47.068;15.408;2023-10-19T07:15:16;12.20;87.00
1996;DHT22;38556;47.068;15.408;2023-10-19T07:17:45;12.40;86.60
1996;DHT22;38556;47.068;15.408;2023-10-19T07:20:15;12.60;86.00
1996;DHT22;38556;47.068;15.408;2023-10-19T07:22:51;12.50;86.50
1996;DHT22;38556;47.068;15.408;2023-10-19T07:25:20;12.20;87.10
1996;DHT22;38556;47.068;15.408;2023-10-19T07:30:16;12.60;86.30
1996;DHT22;38556;47.068;15.408;2023-10-19T07:32:48;12.60;86.30
1996;DHT22;38556;47.068;15.408;2023-10-19T07:35:18;12.40;85.90
1996;DHT22;38556;47.068;15.408;2023-10-19T07:37:45;11.80;86.90
1996;DHT22;38556;47.068;15.408;2023-10-19T07:40:14;11.80;88.30
1996;DHT22;38556;47.068;15.408;2023-10-19T07:42:43;11.80;87.60
1996;DHT22;38556;47.068;15.408;2023-10-19T07:45:11;11.60;88.90
1996;DHT22;38556;47.068;15.408;2023-10-19T07:47:38;12.00;88.70
1996;DHT22;38556;47.068;15.408;2023-10-19T07:52:38;12.20;88.00
1996;DHT22;38556;47.068;15.408;2023-10-19T07:55:06;12.40;87.90
1996;DHT22;38556;47.068;15.408;2023-10-19T07:57:34;12.50;87.80
1996;DHT22;38556;47.068;15.408;2023-10-19T08:00:04;13.00;86.90
1996;DHT22;38556;47.068;15.408;2023-10-19T08:02:32;13.00;86.50
1996;DHT22;38556;47.068;15.408;2023-10-19T08:05:00;13.40;86.40
1996;DHT22;38556;47.068;15.408;2023-10-19T08:07:29;13.60;85.30
1996;DHT22;38556;47.068;15.408;2023-10-19T08:09:56;13.60;85.40
1996;DHT22;38556;47.068;15.408;2023-10-19T08:14:53;13.60;85.60
1996;DHT22;38556;47.068;15.408;2023-10-19T08:17:23;13.80;85.50
1996;DHT22;38556;47.068;15.408;2023-10-19T08:19:50;14.00;85.30
1996;DHT22;38556;47.068;15.408;2023-10-19T08:22:18;14.30;84.50
1996;DHT22;38556;47.068;15.408;2023-10-19T08:24:45;14.00;84.70
1996;DHT22;38556;47.068;15.408;2023-10-19T08:27:13;14.00;84.70
1996;DHT22;38556;47.068;15.408;2023-10-19T08:29:40;14.10;84.50
1996;DHT22;38556;47.068;15.408;2023-10-19T08:32:07;14.40;84.00
1996;DHT22;38556;47.068;15.408;2023-10-19T08:34:37;14.50;84.00
1996;DHT22;38556;47.068;15.408;2023-10-19T08:37:05;14.80;83.00
1996;DHT22;38556;47.068;15.408;2023-10-19T08:39:33;14.80;83.10
1996;DHT22;38556;47.068;15.408;2023-10-19T08:42:02;15.00;83.00
1996;DHT22;38556;47.068;15.408;2023-10-19T08:44:30;15.20;82.70
1996;DHT22;38556;47.068;15.408;2023-10-19T08:46:58;14.90;82.50
1996;DHT22;38556;47.068;15.408;2023-10-19T08:49:26;14.80;83.30
1996;DHT22;38556;47.068;15.408;2023-10-19T08:51:55;14.80;83.70
1996;DHT22;38556;47.068;15.408;2023-10-19T08:54:24;15.00;83.10
1996;DHT22;38556;47.068;15.408;2023-10-19T08:56:52;14.80;82.60
1996;DHT22;38556;47.068;15.408;2023-10-19T08:59:22;14.60;83.90
1996;DHT22;38556;47.068;15.408;2023-10-19T09:01:49;14.60;84.00
1996;DHT22;38556;47.068;15.408;2023-10-19T09:04:16;14.40;84.50
1996;DHT22;38556;47.068;15.408;2023-10-19T09:06:43;14.60;85.10
1996;DHT22;38556;47.068;15.408;2023-10-19T09:09:13;14.90;84.10
1996;DHT22;38556;47.068;15.408;2023-10-19T09:11:42;14.60;84.90
1996;DHT22;38556;47.068;15.408;2023-10-19T09:14:10;14.70;85.00
1996;DHT22;38556;47.068;15.408;2023-10-19T09:16:38;14.50;85.50
1996;DHT22;38556;47.068;15.408;2023-10-19T09:19:21;14.40;86.30
1996;DHT22;38556;47.068;15.408;2023-10-19T09:21:48;14.60;86.10
1996;DHT22;38556;47.068;15.408;2023-10-19T09:24:17;14.60;86.70
1996;DHT22;38556;47.068;15.408;2023-10-19T09:26:44;15.20;85.70
1996;DHT22;38556;47.068;15.408;2023-10-19T09:29:17;15.20;85.10
1996;DHT22;38556;47.068;15.408;2023-10-19T09:31:47;15.30;85.50
1996;DHT22;38556;47.068;15.408;2023-10-19T09:34:15;15.70;84.50
1996;DHT22;38556;47.068;15.408;2023-10-19T09:36:43;15.90;84.70
1996;DHT22;38556;47.068;15.408;2023-10-19T09:39:11;16.20;83.20
1996;DHT22;38556;47.068;15.408;2023-10-19T09:41:40;16.00;83.20
1996;DHT22;38556;47.068;15.408;2023-10-19T09:44:09;14.70;82.70
1996;DHT22;38556;47.068;15.408;2023-10-19T09:46:39;14.20;86.00
1996;DHT22;38556;47.068;15.408;2023-10-19T09:49:08;14.20;86.30
1996;DHT22;38556;47.068;15.408;2023-10-19T09:51:40;14.00;87.60
1996;DHT22;38556;47.068;15.408;2023-10-19T09:56:48;14.40;87.20
1996;DHT22;38556;47.068;15.408;2023-10-19T09:59:23;14.40;87.30
1996;DHT22;38556;47.068;15.408;2023-10-19T10:02:12;14.30;87.80
1996;DHT22;38556;47.068;15.408;2023-10-19T10:04:40;14.70;88.20
1996;DHT22;38556;47.068;15.408;2023-10-19T10:07:09;15.20;88.00
1996;DHT22;38556;47.068;15.408;2023-10-19T10:09:37;15.20;86.20
1996;DHT22;38556;47.068;15.408;2023-10-19T10:12:17;15.30;86.20
1996;DHT22;38556;47.068;15.408;2023-10-19T10:15:00;15.30;86.50
1996;DHT22;38556;47.068;15.408;2023-10-19T10:17:33;15.20;87.30
1996;DHT22;38556;47.068;15.408;2023-10-19T10:20:31;15.60;87.10
1996;DHT22;38556;47.068;15.408;2023-10-19T10:23:24;16.00;86.50
1996;DHT22;38556;47.068;15.408;2023-10-19T10:28:22;15.90;87.00
1996;DHT22;38556;47.068;15.408;2023-10-19T10:31:12;15.80;88.10
1996;DHT22;38556;47.068;15.408;2023-10-19T10:33:45;16.00;88.40
1996;DHT22;38556;47.068;15.408;2023-10-19T10:36:13;16.40;88.70
1996;DHT22;38556;47.068;15.408;2023-10-19T10:38:43;16.60;87.90
1996;DHT22;38556;47.068;15.408;2023-10-19T10:43:51;16.30;88.50
1996;DHT22;38556;47.068;15.408;2023-10-19T10:46:20;16.40;88.80
1996;DHT22;38556;47.068;15.408;2023-10-19T10:51:22;15.90;90.10
1996;DHT22;38556;47.068;15.408;2023-10-19T10:53:51;16.00;90.20
1996;DHT22;38556;47.068;15.408;2023-10-19T10:56:19;16.20;90.20
1996;DHT22;38556;47.068;15.408;2023-10-19T11:04:05;16.60;90.20
1996;DHT22;38556;47.068;15.408;2023-10-19T11:06:33;16.70;90.40
1996;DHT22;38556;47.068;15.408;2023-10-19T11:09:12;16.50;90.70
1996;DHT22;38556;47.068;15.408;2023-10-19T11:16:41;17.20;89.10
1996;DHT22;38556;47.068;15.408;2023-10-19T11:24:05;16.50;90.90
1996;DHT22;38556;47.068;15.408;2023-10-19T11:26:39;16.40;91.60
1996;DHT22;38556;47.068;15.408;2023-10-19T11:34:06;17.00;90.20
1996;DHT22;38556;47.068;15.408;2023-10-19T11:36:35;17.10;90.30
1996;DHT22;38556;47.068;15.408;2023-10-19T11:39:02;17.40;90.30
1996;DHT22;38556;47.068;15.408;2023-10-19T12:01:19;17.80;90.90
1996;DHT22;38556;47.068;15.408;2023-10-19T12:08:46;17.90;90.90
1996;DHT22;38556;47.068;15.408;2023-10-19T12:18:39;17.30;92.70
1996;DHT22;38556;47.068;15.408;2023-10-19T12:23:39;17.60;92.90
1996;DHT22;38556;47.068;15.408;2023-10-19T12:26:08;17.60;93.30
1996;DHT22;38556;47.068;15.408;2023-10-19T12:28:38;17.40;93.80
1996;DHT22;38556;47.068;15.408;2023-10-19T12:41:18;18.10;93.20
1996;DHT22;38556;47.068;15.408;2023-10-19T12:58:37;18.60;92.50
1996;DHT22;38556;47.068;15.408;2023-10-19T13:03:36;18.90;92.00
1996;DHT22;38556;47.068;15.408;2023-10-19T13:13:28;18.70;91.30
1996;DHT22;38556;47.068;15.408;2023-10-19T13:15:57;18.50;91.50
1996;DHT22;38556;47.068;15.408;2023-10-19T13:28:21;18.80;91.40
1996;DHT22;38556;47.068;15.408;2023-10-19T13:30:50;18.60;91.40
1996;DHT22;38556;47.068;15.408;2023-10-19T13:33:20;18.10;92.00
1996;DHT22;38556;47.068;15.408;2023-10-19T13:38:17;17.50;93.20
1996;DHT22;38556;47.068;15.408;2023-10-19T13:43:16;17.80;93.40
1996;DHT22;38556;47.068;15.408;2023-10-19T13:45:45;17.80;93.10
1996;DHT22;38556;47.068;15.408;2023-10-19T13:50:44;17.90;93.00
1996;DHT22;38556;47.068;15.408;2023-10-19T14:08:07;17.60;94.00
1996;DHT22;38556;47.068;15.408;2023-10-19T14:10:35;17.70;93.90
1996;DHT22;38556;47.068;15.408;2023-10-19T14:20:29;17.40;94.60
1996;DHT22;38556;47.068;15.408;2023-10-19T14:25:27;17.30;95.20
1996;DHT22;38556;47.068;15.408;2023-10-19T14:27:56;17.40;94.90
1996;DHT22;38556;47.068;15.408;2023-10-19T14:30:27;17.40;95.00
1996;DHT22;38556;47.068;15.408;2023-10-19T14:35:23;17.70;94.70
1996;DHT22;38556;47.068;15.408;2023-10-19T14:37:52;17.70;94.80
1996;DHT22;38556;47.068;15.408;2023-10-19T14:40:23;17.80;94.90
1996;DHT22;38556;47.068;15.408;2023-10-19T14:45:23;18.30;94.40
1996;DHT22;38556;47.068;15.408;2023-10-19T14:47:53;18.40;94.40
1996;DHT22;38556;47.068;15.408;2023-10-19T14:50:21;18.20;94.30
1996;DHT22;38556;47.068;15.408;2023-10-19T14:52:50;18.10;95.00
1996;DHT22;38556;47.068;15.408;2023-10-19T14:55:18;18.20;95.70
1996;DHT22;38556;47.068;15.408;2023-10-19T14:57:48;18.30;95.70
1996;DHT22;38556;47.068;15.408;2023-10-19T15:00:17;18.50;95.90
1996;DHT22;38556;47.068;15.408;2023-10-19T15:07:49;20.00;95.60
1996;DHT22;38556;47.068;15.408;2023-10-19T15:10:19;20.60;94.00
1996;DHT22;38556;47.068;15.408;2023-10-19T15:12:47;21.30;93.50
1996;DHT22;38556;47.068;15.408;2023-10-19T15:15:16;21.60;91.50
1996;DHT22;38556;47.068;15.408;2023-10-19T15:17:45;21.90;90.90
1996;DHT22;38556;47.068;15.408;2023-10-19T15:20:13;21.80;90.50
1996;DHT22;38556;47.068;15.408;2023-10-19T15:22:42;21.60;90.60
1996;DHT22;38556;47.068;15.408;2023-10-19T15:25:10;20.90;91.90
1996;DHT22;38556;47.068;15.408;2023-10-19T15:27:39;20.70;92.20
1996;DHT22;38556;47.068;15.408;2023-10-19T15:30:08;20.30;92.60
1996;DHT22;38556;47.068;15.408;2023-10-19T15:32:39;20.30;92.60
1996;DHT22;38556;47.068;15.408;2023-10-19T15:35:07;20.40;92.50
1996;DHT22;38556;47.068;15.408;2023-10-19T15:37:37;20.30;92.30
1996;DHT22;38556;47.068;15.408;2023-10-19T15:42:33;20.40;92.40
1996;DHT22;38556;47.068;15.408;2023-10-19T15:45:02;20.20;92.60
1996;DHT22;38556;47.068;15.408;2023-10-19T15:49:59;19.80;92.80
1996;DHT22;38556;47.068;15.408;2023-10-19T15:52:27;18.60;94.40
1996;DHT22;38556;47.068;15.408;2023-10-19T15:54:57;18.20;95.70
1996;DHT22;38556;47.068;15.408;2023-10-19T15:59:54;17.80;97.00
1996;DHT22;38556;47.068;15.408;2023-10-19T16:02:22;18.00;96.60
1996;DHT22;38556;47.068;15.408;2023-10-19T16:07:19;18.50;95.20
1996;DHT22;38556;47.068;15.408;2023-10-19T16:09:46;18.30;95.40
1996;DHT22;38556;47.068;15.408;2023-10-19T16:12:14;18.10;95.80
1996;DHT22;38556;47.068;15.408;2023-10-19T16:14:43;18.40;95.30
1996;DHT22;38556;47.068;15.408;2023-10-19T16:17:11;18.40;95.80
1996;DHT22;38556;47.068;15.408;2023-10-19T16:19:43;17.90;97.10
1996;DHT22;38556;47.068;15.408;2023-10-19T16:22:12;17.40;98.50
1996;DHT22;38556;47.068;15.408;2023-10-19T16:24:43;17.10;99.30
1996;DHT22;38556;47.068;15.408;2023-10-19T16:27:11;17.40;98.60
1996;DHT22;38556;47.068;15.408;2023-10-19T16:29:40;17.80;97.80
1996;DHT22;38556;47.068;15.408;2023-10-19T16:32:09;18.00;97.20
1996;DHT22;38556;47.068;15.408;2023-10-19T16:34:38;17.70;97.80
1996;DHT22;38556;47.068;15.408;2023-10-19T16:37:07;17.00;99.90
1996;DHT22;38556;47.068;15.408;2023-10-19T16:39:37;16.80;99.90
1996;DHT22;38556;47.068;15.408;2023-10-19T16:42:08;16.80;99.90
1996;DHT22;38556;47.068;15.408;2023-10-19T16:44:38;16.60;99.90
1996;DHT22;38556;47.068;15.408;2023-10-19T16:47:07;16.90;99.90
1996;DHT22;38556;47.068;15.408;2023-10-19T16:49:39;17.10;99.90
1996;DHT22;38556;47.068;15.408;2023-10-19T16:52:08;17.50;99.90
1996;DHT22;38556;47.068;15.408;2023-10-19T16:54:39;17.70;99.90
1996;DHT22;38556;47.068;15.408;2023-10-19T16:57:09;17.80;99.90
1996;DHT22;38556;47.068;15.408;2023-10-19T16:59:39;17.50;99.90
1996;DHT22;38556;47.068;15.408;2023-10-19T17:02:08;17.60;99.90
1996;DHT22;38556;47.068;15.408;2023-10-19T17:04:38;17.90;99.70
1996;DHT22;38556;47.068;15.408;2023-10-19T17:07:08;18.00;99.40
1996;DHT22;38556;47.068;15.408;2023-10-19T17:09:37;18.40;98.00
1996;DHT22;38556;47.068;15.408;2023-10-19T17:12:08;18.40;98.10
1996;DHT22;38556;47.068;15.408;2023-10-19T17:14:39;18.50;97.80
1996;DHT22;38556;47.068;15.408;2023-10-19T17:17:09;18.50;98.10
1996;DHT22;38556;47.068;15.408;2023-10-19T17:22:07;17.70;99.80
1996;DHT22;38556;47.068;15.408;2023-10-19T17:24:37;17.80;99.20
1996;DHT22;38556;47.068;15.408;2023-10-19T17:27:06;18.10;99.00
1996;DHT22;38556;47.068;15.408;2023-10-19T17:29:37;17.70;99.90
1996;DHT22;38556;47.068;15.408;2023-10-19T17:32:06;17.70;99.80
1996;DHT22;38556;47.068;15.408;2023-10-19T17:34:36;17.90;99.30
1996;DHT22;38556;47.068;15.408;2023-10-19T17:37:05;18.00;99.10
1996;DHT22;38556;47.068;15.408;2023-10-19T17:39:35;17.80;98.80
1996;DHT22;38556;47.068;15.408;2023-10-19T17:42:04;17.70;99.90
1996;DHT22;38556;47.068;15.408;2023-10-19T17:44:37;17.80;99.10
1996;DHT22;38556;47.068;15.408;2023-10-19T17:47:06;17.90;98.80
1996;DHT22;38556;47.068;15.408;2023-10-19T17:49:36;18.00;98.70
1996;DHT22;38556;47.068;15.408;2023-10-19T17:52:05;18.30;97.90
1996;DHT22;38556;47.068;15.408;2023-10-19T17:54:35;18.20;97.70
1996;DHT22;38556;47.068;15.408;2023-10-19T17:57:04;17.70;98.70
1996;DHT22;38556;47.068;15.408;2023-10-19T17:59:37;17.40;99.80
1996;DHT22;38556;47.068;15.408;2023-10-19T18:02:07;16.70;99.90
1996;DHT22;38556;47.068;15.408;2023-10-19T18:04:39;16.60;99.90
1996;DHT22;38556;47.068;15.408;2023-10-19T18:07:11;16.30;99.90
1996;DHT22;38556;47.068;15.408;2023-10-19T18:09:45;16.20;99.90
1996;DHT22;38556;47.068;15.408;2023-10-19T18:12:16;16.00;99.90
1996;DHT22;38556;47.068;15.408;2023-10-19T18:14:49;15.60;99.90
1996;DHT22;38556;47.068;15.408;2023-10-19T18:17:26;15.60;99.90
1996;DHT22;38556;47.068;15.408;2023-10-19T18:19:57;15.70;99.90
1996;DHT22;38556;47.068;15.408;2023-10-19T18:22:27;15.80;99.90
1996;DHT22;38556;47.068;15.408;2023-10-19T18:24:58;16.20;99.90
1996;DHT22;38556;47.068;15.408;2023-10-19T18:27:28;15.80;99.90
1996;DHT22;38556;47.068;15.408;2023-10-19T18:30:03;15.60;99.90
1996;DHT22;38556;47.068;15.408;2023-10-19T18:32:37;15.30;99.90
1996;DHT22;38556;47.068;15.408;2023-10-19T18:35:10;15.50;99.90
1996;DHT22;38556;47.068;15.408;2023-10-19T18:37:39;15.80;99.90
1996;DHT22;38556;47.068;15.408;2023-10-19T18:40:10;16.30;99.90
1996;DHT22;38556;47.068;15.408;2023-10-19T18:42:40;16.50;99.90
1996;DHT22;38556;47.068;15.408;2023-10-19T18:45:15;16.90;99.90
1996;DHT22;38556;47.068;15.408;2023-10-19T18:47:47;17.30;99.90
1996;DHT22;38556;47.068;15.408;2023-10-19T18:50:19;17.10;99.90
1996;DHT22;38556;47.068;15.408;2023-10-19T18:52:48;17.10;99.90
1996;DHT22;38556;47.068;15.408;2023-10-19T18:55:20;17.00;99.90
1996;DHT22;38556;47.068;15.408;2023-10-19T19:00:22;16.10;99.90
1996;DHT22;38556;47.068;15.408;2023-10-19T19:02:52;16.00;99.90
1996;DHT22;38556;47.068;15.408;2023-10-19T19:05:24;15.90;99.90
1996;DHT22;38556;47.068;15.408;2023-10-19T19:07:56;16.30;99.90
1996;DHT22;38556;47.068;15.408;2023-10-19T19:10:29;16.20;99.90
1996;DHT22;38556;47.068;15.408;2023-10-19T19:12:59;16.40;99.90
1996;DHT22;38556;47.068;15.408;2023-10-19T19:15:31;15.90;99.90
1996;DHT22;38556;47.068;15.408;2023-10-19T19:18:02;15.90;99.90
1996;DHT22;38556;47.068;15.408;2023-10-19T19:20:32;15.90;99.90
1996;DHT22;38556;47.068;15.408;2023-10-19T19:23:01;15.70;99.90
1996;DHT22;38556;47.068;15.408;2023-10-19T19:25:31;15.60;99.90
1996;DHT22;38556;47.068;15.408;2023-10-19T19:28:01;15.10;99.90
1996;DHT22;38556;47.068;15.408;2023-10-19T19:30:34;14.80;99.90
1996;DHT22;38556;47.068;15.408;2023-10-19T19:35:33;14.80;99.90
1996;DHT22;38556;47.068;15.408;2023-10-19T19:38:03;14.90;99.90
1996;DHT22;38556;47.068;15.408;2023-10-19T19:40:32;15.40;99.90
1996;DHT22;38556;47.068;15.408;2023-10-19T19:43:01;15.60;99.90
1996;DHT22;38556;47.068;15.408;2023-10-19T19:45:34;16.00;99.90
1996;DHT22;38556;47.068;15.408;2023-10-19T19:48:09;15.40;99.90
1996;DHT22;38556;47.068;15.408;2023-10-19T19:50:39;15.20;99.90
1996;DHT22;38556;47.068;15.408;2023-10-19T19:53:09;15.30;99.90
1996;DHT22;38556;47.068;15.408;2023-10-19T19:55:40;15.20;99.90
1996;DHT22;38556;47.068;15.408;2023-10-19T19:58:11;15.20;99.90
1996;DHT22;38556;47.068;15.408;2023-10-19T20:00:42;15.50;99.90
1996;DHT22;38556;47.068;15.408;2023-10-19T20:03:11;15.70;99.90
1996;DHT22;38556;47.068;15.408;2023-10-19T20:05:40;16.10;99.90
1996;DHT22;38556;47.068;15.408;2023-10-19T20:08:09;16.30;99.90
1996;DHT22;38556;47.068;15.408;2023-10-19T20:13:10;16.60;99.90
1996;DHT22;38556;47.068;15.408;2023-10-19T20:15:42;16.50;99.90
1996;DHT22;38556;47.068;15.408;2023-10-19T20:18:09;16.40;99.90
1996;DHT22;38556;47.068;15.408;2023-10-19T20:20:38;16.30;99.90
1996;DHT22;38556;47.068;15.408;2023-10-19T20:23:07;15.60;99.90
1996;DHT22;38556;47.068;15.408;2023-10-19T20:25:35;15.00;99.90
1996;DHT22;38556;47.068;15.408;2023-10-19T20:28:02;14.90;99.90
1996;DHT22;38556;47.068;15.408;2023-10-19T20:33:01;15.60;99.90
1996;DHT22;38556;47.068;15.408;2023-10-19T20:37:59;16.20;99.90
1996;DHT22;38556;47.068;15.408;2023-10-19T20:40:28;16.20;99.90
1996;DHT22;38556;47.068;15.408;2023-10-19T20:43:00;16.20;99.90
1996;DHT22;38556;47.068;15.408;2023-10-19T20:45:30;16.20;99.90
1996;DHT22;38556;47.068;15.408;2023-10-19T20:47:58;16.40;99.90
1996;DHT22;38556;47.068;15.408;2023-10-19T20:50:26;16.40;99.90
1996;DHT22;38556;47.068;15.408;2023-10-19T20:52:56;16.30;99.90
1996;DHT22;38556;47.068;15.408;2023-10-19T20:55:26;15.40;99.90